KOMA/OMA METAR and TAF weather

Enter ICAO airport designator
Station Type Date Time Source
KOMA METAR 2019/04/19 08:52 UTC NOAA

KOMA 190852Z 35010KT 10SM CLR 07/03 A3003 RMK AO2 SLP170 T00670028 50002


Station Type Date Time Source
KOMA Decoded METAR 2019/04/19 08:52 UTC NOAA

OMAHA EPPLEY AIRFIELD, NE, United States (KOMA) 41-18N 095-54W 312M
Apr 19, 2019 - 04:52 AM EDT / 2019.04.19 0852 UTC
Wind: from the N (350 degrees) at 12 MPH (10 KT):0
Visibility: 10 mile(s):0
Sky conditions: clear
Temperature: 44.1 F (6.7 C)
Dew Point: 37.0 F (2.8 C)
Relative Humidity: 76%
Pressure (altimeter): 30.03 in. Hg (1016 hPa)
Pressure tendency: 0.01 inches (0.2 hPa) higher than three hours ago
ob: KOMA 190852Z 35010KT 10SM CLR 07/03 A3003 RMK AO2 SLP170 T00670028 50002
cycle: 9

Station Type Date Time Source
KOMA TAF 2019/04/19 06:22 UTC NOAA

TAF KOMA 190520Z 1906/2006 34009KT P6SM SKC
FM200100 15004KT P6SM SKC

Example: see airport list